Current | Forecast
Updated: 10:00 PM CEST on March 30, 2017
Observed at Malaga, Spain
Temperature 15°C
Humidity 63%
Dew Point 8°C
Wind SE at 2 km/h
Pressure 1024 hPa (Steady)
Conditions Clear
Visibility -
UV N/A
Clouds
Yesterday's Maximum 19°C
Yesterday's Minimum 7°C approx.
Yesterday's Heating Degree Days 10 approx.
Sunrise8:06 AM CEST
Sunset8:38 PM CEST
Moon Rise9:52 AM CEST
Moon Set11:30 PM CEST
Moon PhaseMoon Phase
Waxing Crescent
Raw METARMETAR LEMG 302000Z 13001KT CAVOK 15/08 Q1024 NOSIG


Monday
. High: 84° F.
Tuesday
. High: 84° F.
Wednesday
. High: 78° F.
Thursday
. High: 78° F.
Friday
. High: 75° F.
Saturday
. High: 82° F.
Sunday
. High: 82° F.
Monday
. High: 82° F.

Units: English | Metric

Find the Weather for any City, State or Zipcode, or Country:

U.S. State List | Severe Weather | Tropical Storms | Ski Conditions
United States | Canada | Central America | South America | Asia | Europe | Australia | Africa | Islands

Weather Underground

© Copyright 2017
The Weather Company, LLC